sensor_id;sensor_type;location;lat;lon;timestamp;pressure;altitude;pressure_sealevel;temperature;humidity
15489;BME280;7846;48.830;9.116;2023-02-14T00:02:09;99668.09;;;4.58;70.52
15489;BME280;7846;48.830;9.116;2023-02-14T00:04:34;99658.44;;;4.60;69.98
15489;BME280;7846;48.830;9.116;2023-02-14T00:07:03;99657.50;;;4.61;70.14
15489;BME280;7846;48.830;9.116;2023-02-14T00:09:28;99653.00;;;4.65;70.06
15489;BME280;7846;48.830;9.116;2023-02-14T00:11:53;99658.34;;;4.62;70.31
15489;BME280;7846;48.830;9.116;2023-02-14T00:14:19;99655.00;;;4.60;69.95
15489;BME280;7846;48.830;9.116;2023-02-14T00:17:03;99653.50;;;4.54;70.03
15489;BME280;7846;48.830;9.116;2023-02-14T00:19:28;99654.22;;;4.58;70.06
15489;BME280;7846;48.830;9.116;2023-02-14T00:21:56;99661.81;;;4.63;69.82
15489;BME280;7846;48.830;9.116;2023-02-14T00:24:24;99658.09;;;4.49;70.33
15489;BME280;7846;48.830;9.116;2023-02-14T00:26:51;99656.78;;;4.41;70.72
15489;BME280;7846;48.830;9.116;2023-02-14T00:29:21;99662.25;;;4.53;70.61
15489;BME280;7846;48.830;9.116;2023-02-14T00:31:47;99659.59;;;4.36;70.53
15489;BME280;7846;48.830;9.116;2023-02-14T00:34:14;99655.00;;;4.41;71.32
15489;BME280;7846;48.830;9.116;2023-02-14T00:36:41;99665.59;;;4.38;70.62
15489;BME280;7846;48.830;9.116;2023-02-14T00:39:09;99657.94;;;4.52;70.40
15489;BME280;7846;48.830;9.116;2023-02-14T00:41:35;99660.53;;;4.35;70.54
15489;BME280;7846;48.830;9.116;2023-02-14T00:44:01;99663.31;;;4.49;70.66
15489;BME280;7846;48.830;9.116;2023-02-14T00:46:27;99655.50;;;4.49;70.28
15489;BME280;7846;48.830;9.116;2023-02-14T00:48:52;99652.81;;;4.51;70.11
15489;BME280;7846;48.830;9.116;2023-02-14T00:51:20;99654.34;;;4.55;70.40
15489;BME280;7846;48.830;9.116;2023-02-14T00:53:47;99649.38;;;4.50;69.97
15489;BME280;7846;48.830;9.116;2023-02-14T00:56:13;99649.16;;;4.36;69.54
15489;BME280;7846;48.830;9.116;2023-02-14T00:58:39;99655.13;;;4.21;70.31
15489;BME280;7846;48.830;9.116;2023-02-14T01:01:05;99660.66;;;4.32;70.15
15489;BME280;7846;48.830;9.116;2023-02-14T01:03:34;99670.31;;;4.30;69.92
15489;BME280;7846;48.830;9.116;2023-02-14T01:05:59;99670.47;;;4.27;69.98
15489;BME280;7846;48.830;9.116;2023-02-14T01:08:25;99672.19;;;3.70;71.66
15489;BME280;7846;48.830;9.116;2023-02-14T01:10:51;99666.72;;;3.36;73.03
15489;BME280;7846;48.830;9.116;2023-02-14T01:13:16;99661.44;;;3.38;73.61
15489;BME280;7846;48.830;9.116;2023-02-14T01:15:45;99666.81;;;3.93;72.71
15489;BME280;7846;48.830;9.116;2023-02-14T01:18:11;99667.78;;;3.91;72.92
15489;BME280;7846;48.830;9.116;2023-02-14T01:20:37;99660.47;;;3.80;72.68
15489;BME280;7846;48.830;9.116;2023-02-14T01:23:02;99664.75;;;4.00;71.43
15489;BME280;7846;48.830;9.116;2023-02-14T01:25:28;99665.31;;;3.69;71.38
15489;BME280;7846;48.830;9.116;2023-02-14T01:27:56;99661.03;;;4.05;71.84
15489;BME280;7846;48.830;9.116;2023-02-14T01:30:22;99654.78;;;3.51;72.03
15489;BME280;7846;48.830;9.116;2023-02-14T01:32:49;99653.03;;;3.52;73.41
15489;BME280;7846;48.830;9.116;2023-02-14T01:35:14;99658.22;;;3.12;74.25
15489;BME280;7846;48.830;9.116;2023-02-14T01:37:40;99651.69;;;3.82;72.97
15489;BME280;7846;48.830;9.116;2023-02-14T01:40:09;99648.06;;;4.04;71.89
15489;BME280;7846;48.830;9.116;2023-02-14T01:42:35;99644.63;;;4.03;71.00
15489;BME280;7846;48.830;9.116;2023-02-14T01:47:37;99648.78;;;4.07;71.32
15489;BME280;7846;48.830;9.116;2023-02-14T01:50:12;99646.94;;;4.09;70.85
15489;BME280;7846;48.830;9.116;2023-02-14T01:52:48;99652.50;;;3.83;72.37
15489;BME280;7846;48.830;9.116;2023-02-14T01:55:20;99644.41;;;3.89;71.98
15489;BME280;7846;48.830;9.116;2023-02-14T01:58:00;99645.09;;;3.93;71.68
15489;BME280;7846;48.830;9.116;2023-02-14T02:00:27;99641.59;;;3.75;72.65
15489;BME280;7846;48.830;9.116;2023-02-14T02:03:16;99652.66;;;3.99;72.11
15489;BME280;7846;48.830;9.116;2023-02-14T02:05:47;99650.19;;;4.15;71.48
15489;BME280;7846;48.830;9.116;2023-02-14T02:08:16;99648.50;;;4.13;70.98
15489;BME280;7846;48.830;9.116;2023-02-14T02:10:41;99653.09;;;4.08;70.32
15489;BME280;7846;48.830;9.116;2023-02-14T02:13:12;99648.50;;;4.13;70.37
15489;BME280;7846;48.830;9.116;2023-02-14T02:15:56;99656.44;;;4.10;70.88
15489;BME280;7846;48.830;9.116;2023-02-14T02:18:34;99651.47;;;4.06;70.85
15489;BME280;7846;48.830;9.116;2023-02-14T02:21:34;99657.25;;;4.12;70.97
15489;BME280;7846;48.830;9.116;2023-02-14T02:24:15;99657.47;;;4.08;70.74
15489;BME280;7846;48.830;9.116;2023-02-14T02:27:03;99650.41;;;4.10;70.70
15489;BME280;7846;48.830;9.116;2023-02-14T02:38:52;99648.38;;;3.98;70.46
15489;BME280;7846;48.830;9.116;2023-02-14T02:41:32;99638.78;;;3.98;71.08
15489;BME280;7846;48.830;9.116;2023-02-14T02:46:51;99634.50;;;3.97;70.92
15489;BME280;7846;48.830;9.116;2023-02-14T02:52:20;99643.78;;;3.84;71.30
15489;BME280;7846;48.830;9.116;2023-02-14T02:55:15;99645.91;;;3.95;71.06
15489;BME280;7846;48.830;9.116;2023-02-14T02:57:42;99656.81;;;3.84;71.31
15489;BME280;7846;48.830;9.116;2023-02-14T03:00:11;99649.25;;;3.78;71.48
15489;BME280;7846;48.830;9.116;2023-02-14T03:02:40;99651.16;;;3.74;71.62
15489;BME280;7846;48.830;9.116;2023-02-14T03:05:27;99643.91;;;3.81;71.47
15489;BME280;7846;48.830;9.116;2023-02-14T03:07:53;99641.19;;;3.84;70.52
15489;BME280;7846;48.830;9.116;2023-02-14T03:10:24;99644.34;;;3.91;70.91
15489;BME280;7846;48.830;9.116;2023-02-14T03:18:10;99644.34;;;3.72;70.83
15489;BME280;7846;48.830;9.116;2023-02-14T03:20:53;99651.13;;;3.55;71.75
15489;BME280;7846;48.830;9.116;2023-02-14T03:23:27;99658.13;;;2.94;73.85
15489;BME280;7846;48.830;9.116;2023-02-14T03:26:02;99653.19;;;2.87;74.03
15489;BME280;7846;48.830;9.116;2023-02-14T03:28:45;99654.09;;;3.67;73.24
15489;BME280;7846;48.830;9.116;2023-02-14T03:31:21;99645.47;;;3.85;71.42
15489;BME280;7846;48.830;9.116;2023-02-14T03:33:55;99656.41;;;3.93;70.36
15489;BME280;7846;48.830;9.116;2023-02-14T03:36:32;99654.19;;;3.84;70.97
15489;BME280;7846;48.830;9.116;2023-02-14T03:39:15;99651.59;;;3.84;70.80
15489;BME280;7846;48.830;9.116;2023-02-14T03:41:49;99654.19;;;3.84;70.68
15489;BME280;7846;48.830;9.116;2023-02-14T03:44:19;99650.63;;;3.86;69.67
15489;BME280;7846;48.830;9.116;2023-02-14T03:46:50;99654.91;;;3.87;69.55
15489;BME280;7846;48.830;9.116;2023-02-14T03:49:21;99651.47;;;3.87;69.79
15489;BME280;7846;48.830;9.116;2023-02-14T03:51:51;99642.84;;;3.85;69.78
15489;BME280;7846;48.830;9.116;2023-02-14T03:54:19;99644.84;;;3.80;69.79
15489;BME280;7846;48.830;9.116;2023-02-14T03:56:52;99646.59;;;3.79;69.44
15489;BME280;7846;48.830;9.116;2023-02-14T03:59:23;99647.53;;;3.78;69.69
15489;BME280;7846;48.830;9.116;2023-02-14T04:01:56;99640.91;;;3.71;69.91
15489;BME280;7846;48.830;9.116;2023-02-14T04:04:29;99635.47;;;3.76;69.84
15489;BME280;7846;48.830;9.116;2023-02-14T04:06:58;99637.72;;;3.64;70.03
15489;BME280;7846;48.830;9.116;2023-02-14T04:09:24;99639.53;;;3.62;69.62
15489;BME280;7846;48.830;9.116;2023-02-14T04:11:50;99641.28;;;3.62;70.14
15489;BME280;7846;48.830;9.116;2023-02-14T04:14:16;99642.25;;;3.59;70.02
15489;BME280;7846;48.830;9.116;2023-02-14T04:16:42;99642.13;;;3.62;70.54
15489;BME280;7846;48.830;9.116;2023-02-14T04:19:26;99643.75;;;3.65;69.87
15489;BME280;7846;48.830;9.116;2023-02-14T04:21:52;99637.63;;;3.66;69.57
15489;BME280;7846;48.830;9.116;2023-02-14T04:24:18;99637.06;;;3.59;69.97
15489;BME280;7846;48.830;9.116;2023-02-14T04:26:45;99640.78;;;2.94;70.65
15489;BME280;7846;48.830;9.116;2023-02-14T04:29:44;99637.66;;;3.06;72.89
15489;BME280;7846;48.830;9.116;2023-02-14T04:32:14;99633.00;;;3.33;72.04
15489;BME280;7846;48.830;9.116;2023-02-14T04:34:40;99639.78;;;2.76;71.72
15489;BME280;7846;48.830;9.116;2023-02-14T04:37:06;99637.69;;;2.84;73.78
15489;BME280;7846;48.830;9.116;2023-02-14T04:39:32;99637.50;;;2.47;74.34
15489;BME280;7846;48.830;9.116;2023-02-14T04:41:58;99638.72;;;2.38;74.45
15489;BME280;7846;48.830;9.116;2023-02-14T04:44:25;99639.56;;;2.38;74.21
15489;BME280;7846;48.830;9.116;2023-02-14T04:46:50;99630.97;;;2.36;74.40
15489;BME280;7846;48.830;9.116;2023-02-14T04:49:16;99632.75;;;2.36;74.48
15489;BME280;7846;48.830;9.116;2023-02-14T04:51:41;99632.94;;;2.31;75.05
15489;BME280;7846;48.830;9.116;2023-02-14T04:54:07;99635.72;;;2.69;75.05
15489;BME280;7846;48.830;9.116;2023-02-14T04:56:32;99636.78;;;2.43;73.85
15489;BME280;7846;48.830;9.116;2023-02-14T04:58:58;99632.81;;;2.34;74.58
15489;BME280;7846;48.830;9.116;2023-02-14T05:01:23;99631.69;;;2.40;73.77
15489;BME280;7846;48.830;9.116;2023-02-14T05:03:48;99635.66;;;2.71;73.78
15489;BME280;7846;48.830;9.116;2023-02-14T05:06:14;99638.13;;;2.31;74.35
15489;BME280;7846;48.830;9.116;2023-02-14T05:08:39;99634.53;;;2.98;72.61
15489;BME280;7846;48.830;9.116;2023-02-14T05:11:05;99630.47;;;3.11;71.53
15489;BME280;7846;48.830;9.116;2023-02-14T05:13:30;99624.31;;;3.14;71.00
15489;BME280;7846;48.830;9.116;2023-02-14T05:15:56;99622.75;;;3.10;70.94
15489;BME280;7846;48.830;9.116;2023-02-14T05:18:21;99623.19;;;2.36;72.65
15489;BME280;7846;48.830;9.116;2023-02-14T05:20:49;99628.88;;;2.24;73.83
15489;BME280;7846;48.830;9.116;2023-02-14T05:23:14;99630.03;;;2.17;73.88
15489;BME280;7846;48.830;9.116;2023-02-14T05:25:41;99625.97;;;2.32;74.51
15489;BME280;7846;48.830;9.116;2023-02-14T05:28:06;99630.13;;;2.14;74.46
15489;BME280;7846;48.830;9.116;2023-02-14T05:30:36;99625.31;;;2.49;73.37
15489;BME280;7846;48.830;9.116;2023-02-14T05:33:01;99629.22;;;2.15;74.44
15489;BME280;7846;48.830;9.116;2023-02-14T05:35:27;99631.34;;;2.05;75.42
15489;BME280;7846;48.830;9.116;2023-02-14T05:37:52;99631.88;;;2.13;75.23
15489;BME280;7846;48.830;9.116;2023-02-14T05:40:18;99631.69;;;2.18;75.14
15489;BME280;7846;48.830;9.116;2023-02-14T05:42:46;99627.34;;;2.18;74.90
15489;BME280;7846;48.830;9.116;2023-02-14T05:45:12;99631.81;;;2.15;75.12
15489;BME280;7846;48.830;9.116;2023-02-14T05:47:39;99623.16;;;3.01;73.35
15489;BME280;7846;48.830;9.116;2023-02-14T05:50:06;99630.03;;;3.22;71.08
15489;BME280;7846;48.830;9.116;2023-02-14T05:52:31;99629.31;;;3.19;70.64
15489;BME280;7846;48.830;9.116;2023-02-14T05:54:57;99639.78;;;3.17;70.02
15489;BME280;7846;48.830;9.116;2023-02-14T05:57:22;99639.97;;;3.33;70.01
15489;BME280;7846;48.830;9.116;2023-02-14T05:59:50;99641.22;;;3.24;69.67
15489;BME280;7846;48.830;9.116;2023-02-14T06:02:15;99638.81;;;3.20;69.72
15489;BME280;7846;48.830;9.116;2023-02-14T06:04:42;99632.38;;;3.28;69.56
15489;BME280;7846;48.830;9.116;2023-02-14T06:07:10;99638.22;;;3.33;69.61
15489;BME280;7846;48.830;9.116;2023-02-14T06:09:35;99644.28;;;3.34;69.55
15489;BME280;7846;48.830;9.116;2023-02-14T06:12:04;99644.03;;;3.20;69.30
15489;BME280;7846;48.830;9.116;2023-02-14T06:14:29;99650.44;;;3.11;69.79
15489;BME280;7846;48.830;9.116;2023-02-14T06:16:56;99644.66;;;3.25;69.72
15489;BME280;7846;48.830;9.116;2023-02-14T06:19:22;99646.81;;;3.15;69.48
15489;BME280;7846;48.830;9.116;2023-02-14T06:21:48;99647.59;;;3.17;69.80
15489;BME280;7846;48.830;9.116;2023-02-14T06:24:14;99649.88;;;3.25;69.69
15489;BME280;7846;48.830;9.116;2023-02-14T06:26:40;99650.19;;;3.17;69.70
15489;BME280;7846;48.830;9.116;2023-02-14T06:29:05;99652.72;;;3.19;69.25
15489;BME280;7846;48.830;9.116;2023-02-14T06:31:30;99651.13;;;3.16;69.88
15489;BME280;7846;48.830;9.116;2023-02-14T06:33:56;99652.81;;;3.17;69.46
15489;BME280;7846;48.830;9.116;2023-02-14T06:36:22;99653.31;;;3.25;69.94
15489;BME280;7846;48.830;9.116;2023-02-14T06:38:48;99662.56;;;3.12;70.64
15489;BME280;7846;48.830;9.116;2023-02-14T06:41:14;99652.69;;;3.20;70.17
15489;BME280;7846;48.830;9.116;2023-02-14T06:43:42;99656.84;;;3.24;70.22
15489;BME280;7846;48.830;9.116;2023-02-14T06:46:09;99656.00;;;3.24;69.75
15489;BME280;7846;48.830;9.116;2023-02-14T06:48:34;99651.84;;;3.20;69.77
15489;BME280;7846;48.830;9.116;2023-02-14T06:51:00;99664.94;;;2.76;70.06
15489;BME280;7846;48.830;9.116;2023-02-14T06:53:26;99662.88;;;2.40;72.95
15489;BME280;7846;48.830;9.116;2023-02-14T06:55:52;99664.00;;;2.34;73.37
15489;BME280;7846;48.830;9.116;2023-02-14T06:58:17;99662.28;;;2.33;74.01
15489;BME280;7846;48.830;9.116;2023-02-14T07:00:42;99665.56;;;2.38;73.85
15489;BME280;7846;48.830;9.116;2023-02-14T07:03:08;99669.91;;;2.38;74.08
15489;BME280;7846;48.830;9.116;2023-02-14T07:05:36;99665.19;;;2.48;74.36
15489;BME280;7846;48.830;9.116;2023-02-14T07:08:05;99657.75;;;2.60;74.11
15489;BME280;7846;48.830;9.116;2023-02-14T07:10:33;99648.25;;;2.59;73.89
15489;BME280;7846;48.830;9.116;2023-02-14T07:12:59;99648.66;;;2.71;74.04
15489;BME280;7846;48.830;9.116;2023-02-14T07:15:25;99644.00;;;2.79;73.43
15489;BME280;7846;48.830;9.116;2023-02-14T07:17:50;99644.53;;;2.87;73.30
15489;BME280;7846;48.830;9.116;2023-02-14T07:20:16;99646.72;;;2.96;73.68
15489;BME280;7846;48.830;9.116;2023-02-14T07:22:43;99643.25;;;2.97;73.17
15489;BME280;7846;48.830;9.116;2023-02-14T07:25:10;99654.16;;;3.05;73.75
15489;BME280;7846;48.830;9.116;2023-02-14T07:27:36;99645.84;;;3.18;73.56
15489;BME280;7846;48.830;9.116;2023-02-14T07:30:03;99648.91;;;3.27;73.41
15489;BME280;7846;48.830;9.116;2023-02-14T07:32:28;99642.41;;;3.37;72.73
15489;BME280;7846;48.830;9.116;2023-02-14T07:34:54;99655.72;;;3.30;73.61
15489;BME280;7846;48.830;9.116;2023-02-14T07:37:19;99653.47;;;3.41;73.47
15489;BME280;7846;48.830;9.116;2023-02-14T07:39:45;99654.66;;;3.54;73.51
15489;BME280;7846;48.830;9.116;2023-02-14T07:42:10;99651.91;;;3.57;73.36
15489;BME280;7846;48.830;9.116;2023-02-14T07:44:36;99651.44;;;3.68;73.52
15489;BME280;7846;48.830;9.116;2023-02-14T07:47:06;99645.41;;;3.86;73.53
15489;BME280;7846;48.830;9.116;2023-02-14T07:49:33;99652.78;;;3.96;73.21
15489;BME280;7846;48.830;9.116;2023-02-14T07:51:58;99659.19;;;4.07;73.09
15489;BME280;7846;48.830;9.116;2023-02-14T07:54:24;99652.88;;;4.13;72.36
15489;BME280;7846;48.830;9.116;2023-02-14T07:56:49;99654.53;;;4.14;72.87
15489;BME280;7846;48.830;9.116;2023-02-14T07:59:15;99645.31;;;4.26;72.58
15489;BME280;7846;48.830;9.116;2023-02-14T08:01:40;99648.75;;;4.45;72.23
15489;BME280;7846;48.830;9.116;2023-02-14T08:04:06;99646.63;;;4.53;72.49
15489;BME280;7846;48.830;9.116;2023-02-14T08:06:31;99642.56;;;4.65;72.22
15489;BME280;7846;48.830;9.116;2023-02-14T08:08:56;99637.44;;;4.64;71.51
15489;BME280;7846;48.830;9.116;2023-02-14T08:11:22;99634.13;;;4.77;72.17
15489;BME280;7846;48.830;9.116;2023-02-14T08:14:13;99641.66;;;4.83;72.06
15489;BME280;7846;48.830;9.116;2023-02-14T08:16:38;99641.09;;;4.77;71.94
15489;BME280;7846;48.830;9.116;2023-02-14T08:19:05;99638.28;;;4.99;72.13
15489;BME280;7846;48.830;9.116;2023-02-14T08:21:30;99629.59;;;4.81;71.70
15489;BME280;7846;48.830;9.116;2023-02-14T08:23:56;99629.75;;;4.95;71.66
15489;BME280;7846;48.830;9.116;2023-02-14T08:26:21;99627.69;;;5.19;70.48
15489;BME280;7846;48.830;9.116;2023-02-14T08:28:48;99631.81;;;5.23;71.41
15489;BME280;7846;48.830;9.116;2023-02-14T08:31:22;99632.03;;;5.36;71.17
15489;BME280;7846;48.830;9.116;2023-02-14T08:33:48;99631.72;;;5.42;71.14
15489;BME280;7846;48.830;9.116;2023-02-14T08:36:13;99628.88;;;5.47;70.56
15489;BME280;7846;48.830;9.116;2023-02-14T08:38:38;99639.59;;;5.74;69.92
15489;BME280;7846;48.830;9.116;2023-02-14T08:41:05;99627.91;;;5.81;70.13
15489;BME280;7846;48.830;9.116;2023-02-14T08:43:31;99629.44;;;5.85;70.06
15489;BME280;7846;48.830;9.116;2023-02-14T08:45:57;99630.19;;;5.87;70.32
15489;BME280;7846;48.830;9.116;2023-02-14T08:48:22;99631.84;;;6.05;70.10
15489;BME280;7846;48.830;9.116;2023-02-14T08:50:49;99631.25;;;6.00;70.02
15489;BME280;7846;48.830;9.116;2023-02-14T08:53:17;99630.81;;;6.40;69.13
15489;BME280;7846;48.830;9.116;2023-02-14T08:55:43;99628.72;;;6.15;68.29
15489;BME280;7846;48.830;9.116;2023-02-14T08:58:08;99629.22;;;6.21;68.92
15489;BME280;7846;48.830;9.116;2023-02-14T09:00:37;99626.06;;;6.62;68.48
15489;BME280;7846;48.830;9.116;2023-02-14T09:03:02;99630.72;;;6.41;67.81
15489;BME280;7846;48.830;9.116;2023-02-14T09:05:28;99633.19;;;6.28;68.36
15489;BME280;7846;48.830;9.116;2023-02-14T09:07:53;99629.25;;;6.67;68.15
15489;BME280;7846;48.830;9.116;2023-02-14T09:10:24;99624.72;;;6.85;67.09
15489;BME280;7846;48.830;9.116;2023-02-14T09:12:50;99628.19;;;6.86;67.20
15489;BME280;7846;48.830;9.116;2023-02-14T09:15:15;99621.84;;;7.20;66.70
15489;BME280;7846;48.830;9.116;2023-02-14T09:17:42;99622.88;;;7.46;65.44
15489;BME280;7846;48.830;9.116;2023-02-14T09:20:10;99622.44;;;7.54;65.64
15489;BME280;7846;48.830;9.116;2023-02-14T09:22:36;99621.75;;;7.50;64.82
15489;BME280;7846;48.830;9.116;2023-02-14T09:25:02;99611.72;;;7.71;64.48
15489;BME280;7846;48.830;9.116;2023-02-14T09:27:27;99612.34;;;8.03;63.81
15489;BME280;7846;48.830;9.116;2023-02-14T09:29:52;99625.84;;;7.97;63.92
15489;BME280;7846;48.830;9.116;2023-02-14T09:32:18;99620.31;;;8.02;63.78
15489;BME280;7846;48.830;9.116;2023-02-14T09:34:43;99612.50;;;7.73;63.16
15489;BME280;7846;48.830;9.116;2023-02-14T09:37:27;99609.25;;;7.96;63.57
15489;BME280;7846;48.830;9.116;2023-02-14T09:40:15;99606.28;;;8.03;63.32
15489;BME280;7846;48.830;9.116;2023-02-14T09:42:58;99607.38;;;8.13;62.68
15489;BME280;7846;48.830;9.116;2023-02-14T09:45:28;99600.66;;;8.36;62.70
15489;BME280;7846;48.830;9.116;2023-02-14T09:47:57;99601.53;;;8.76;61.02
15489;BME280;7846;48.830;9.116;2023-02-14T09:50:47;99594.94;;;8.96;61.20
15489;BME280;7846;48.830;9.116;2023-02-14T09:55:45;99595.38;;;9.15;60.40
15489;BME280;7846;48.830;9.116;2023-02-14T09:58:29;99592.13;;;9.37;59.50
15489;BME280;7846;48.830;9.116;2023-02-14T10:01:09;99590.78;;;9.32;59.46
15489;BME280;7846;48.830;9.116;2023-02-14T10:09:36;99585.84;;;9.14;59.02
15489;BME280;7846;48.830;9.116;2023-02-14T10:12:09;99585.19;;;9.36;59.03
15489;BME280;7846;48.830;9.116;2023-02-14T10:14:39;99577.59;;;9.70;57.72
15489;BME280;7846;48.830;9.116;2023-02-14T10:17:09;99573.22;;;9.58;58.64
15489;BME280;7846;48.830;9.116;2023-02-14T10:19:58;99582.47;;;10.00;57.78
15489;BME280;7846;48.830;9.116;2023-02-14T10:22:37;99579.13;;;9.98;57.74
15489;BME280;7846;48.830;9.116;2023-02-14T10:25:27;99581.81;;;10.09;57.51
15489;BME280;7846;48.830;9.116;2023-02-14T10:27:55;99583.16;;;10.15;57.37
15489;BME280;7846;48.830;9.116;2023-02-14T10:30:23;99569.81;;;10.42;57.09
15489;BME280;7846;48.830;9.116;2023-02-14T10:33:15;99567.13;;;10.31;56.40
15489;BME280;7846;48.830;9.116;2023-02-14T10:35:46;99566.34;;;10.05;56.94
15489;BME280;7846;48.830;9.116;2023-02-14T10:41:13;99552.31;;;10.17;56.14
15489;BME280;7846;48.830;9.116;2023-02-14T10:51:53;99552.28;;;11.79;53.02
15489;BME280;7846;48.830;9.116;2023-02-14T10:54:24;99552.66;;;11.29;53.17
15489;BME280;7846;48.830;9.116;2023-02-14T10:57:15;99552.19;;;11.58;53.37
15489;BME280;7846;48.830;9.116;2023-02-14T10:59:53;99544.00;;;11.05;53.92
15489;BME280;7846;48.830;9.116;2023-02-14T11:02:23;99546.44;;;11.86;53.60
15489;BME280;7846;48.830;9.116;2023-02-14T11:04:50;99543.19;;;11.38;52.51
15489;BME280;7846;48.830;9.116;2023-02-14T11:07:18;99533.63;;;12.25;52.48
15489;BME280;7846;48.830;9.116;2023-02-14T11:09:45;99533.97;;;11.66;52.24
15489;BME280;7846;48.830;9.116;2023-02-14T11:12:10;99525.38;;;12.07;52.12
15489;BME280;7846;48.830;9.116;2023-02-14T11:14:38;99527.84;;;12.52;51.21
15489;BME280;7846;48.830;9.116;2023-02-14T11:17:27;99525.78;;;12.35;50.80
15489;BME280;7846;48.830;9.116;2023-02-14T11:20:02;99523.69;;;12.71;49.71
15489;BME280;7846;48.830;9.116;2023-02-14T11:22:34;99517.13;;;12.01;51.00
15489;BME280;7846;48.830;9.116;2023-02-14T11:25:19;99520.75;;;12.53;50.68
15489;BME280;7846;48.830;9.116;2023-02-14T11:27:46;99518.31;;;12.40;50.02
15489;BME280;7846;48.830;9.116;2023-02-14T11:30:33;99513.75;;;12.84;50.28
15489;BME280;7846;48.830;9.116;2023-02-14T11:33:00;99507.00;;;12.91;50.04
15489;BME280;7846;48.830;9.116;2023-02-14T11:35:27;99500.56;;;13.15;48.94
15489;BME280;7846;48.830;9.116;2023-02-14T11:38:00;99502.03;;;12.98;49.54
15489;BME280;7846;48.830;9.116;2023-02-14T11:40:37;99500.25;;;13.69;48.61
15489;BME280;7846;48.830;9.116;2023-02-14T11:45:36;99504.53;;;12.78;50.15
15489;BME280;7846;48.830;9.116;2023-02-14T11:51:00;99490.06;;;13.74;48.03
15489;BME280;7846;48.830;9.116;2023-02-14T11:53:31;99490.66;;;13.68;47.58
15489;BME280;7846;48.830;9.116;2023-02-14T11:55:58;99485.81;;;14.22;47.41
15489;BME280;7846;48.830;9.116;2023-02-14T11:58:30;99481.75;;;14.08;47.59
15489;BME280;7846;48.830;9.116;2023-02-14T12:00:58;99478.00;;;14.40;46.53
15489;BME280;7846;48.830;9.116;2023-02-14T12:03:25;99481.09;;;14.35;46.79
15489;BME280;7846;48.830;9.116;2023-02-14T12:05:54;99478.63;;;13.54;47.00
15489;BME280;7846;48.830;9.116;2023-02-14T12:08:26;99477.00;;;13.83;48.14
15489;BME280;7846;48.830;9.116;2023-02-14T12:11:05;99466.56;;;14.00;47.39
15489;BME280;7846;48.830;9.116;2023-02-14T12:13:50;99475.31;;;13.62;47.67
15489;BME280;7846;48.830;9.116;2023-02-14T12:16:25;99470.19;;;14.48;46.93
15489;BME280;7846;48.830;9.116;2023-02-14T12:18:58;99470.50;;;14.25;47.10
15489;BME280;7846;48.830;9.116;2023-02-14T12:24:25;99463.16;;;14.86;46.12
15489;BME280;7846;48.830;9.116;2023-02-14T12:29:35;99463.13;;;15.60;44.96
15489;BME280;7846;48.830;9.116;2023-02-14T12:32:12;99452.38;;;14.50;46.01
15489;BME280;7846;48.830;9.116;2023-02-14T12:34:41;99455.59;;;15.00;46.06
15489;BME280;7846;48.830;9.116;2023-02-14T12:37:18;99445.94;;;14.43;46.64
15489;BME280;7846;48.830;9.116;2023-02-14T12:40:10;99447.19;;;15.05;45.52
15489;BME280;7846;48.830;9.116;2023-02-14T12:42:47;99439.94;;;15.07;45.27
15489;BME280;7846;48.830;9.116;2023-02-14T12:45:51;99433.00;;;15.79;44.11
15489;BME280;7846;48.830;9.116;2023-02-14T12:48:32;99431.34;;;15.51;44.16
15489;BME280;7846;48.830;9.116;2023-02-14T12:58:51;99422.69;;;16.12;42.54
15489;BME280;7846;48.830;9.116;2023-02-14T13:01:41;99423.31;;;16.06;44.26
15489;BME280;7846;48.830;9.116;2023-02-14T13:04:37;99413.91;;;17.74;41.24
15489;BME280;7846;48.830;9.116;2023-02-14T13:10:34;99416.97;;;19.17;38.98
15489;BME280;7846;48.830;9.116;2023-02-14T13:18:57;99401.34;;;20.22;37.01
15489;BME280;7846;48.830;9.116;2023-02-14T13:21:26;99390.13;;;20.41;36.28
15489;BME280;7846;48.830;9.116;2023-02-14T13:24:02;99395.56;;;16.08;41.67
15489;BME280;7846;48.830;9.116;2023-02-14T13:26:34;99396.53;;;16.69;42.32
15489;BME280;7846;48.830;9.116;2023-02-14T13:29:05;99394.47;;;16.63;42.30
15489;BME280;7846;48.830;9.116;2023-02-14T13:31:31;99383.28;;;16.07;44.18
15489;BME280;7846;48.830;9.116;2023-02-14T13:34:00;99382.31;;;16.34;44.30
15489;BME280;7846;48.830;9.116;2023-02-14T13:36:30;99383.50;;;16.84;43.36
15489;BME280;7846;48.830;9.116;2023-02-14T13:38:57;99382.22;;;16.18;44.09
15489;BME280;7846;48.830;9.116;2023-02-14T13:41:24;99377.31;;;15.24;45.45
15489;BME280;7846;48.830;9.116;2023-02-14T13:43:58;99376.47;;;16.05;44.72
15489;BME280;7846;48.830;9.116;2023-02-14T13:49:30;99374.97;;;15.66;44.59
15489;BME280;7846;48.830;9.116;2023-02-14T13:52:04;99369.75;;;15.01;47.49
15489;BME280;7846;48.830;9.116;2023-02-14T13:54:35;99377.06;;;14.43;49.21
15489;BME280;7846;48.830;9.116;2023-02-14T13:57:33;99363.69;;;16.08;46.14
15489;BME280;7846;48.830;9.116;2023-02-14T14:02:53;99358.22;;;15.84;46.86
15489;BME280;7846;48.830;9.116;2023-02-14T14:10:49;99363.13;;;15.15;47.27
15489;BME280;7846;48.830;9.116;2023-02-14T14:19:33;99356.13;;;14.49;49.54
15489;BME280;7846;48.830;9.116;2023-02-14T14:22:01;99360.28;;;14.99;49.30
15489;BME280;7846;48.830;9.116;2023-02-14T14:24:29;99353.53;;;15.32;48.74
15489;BME280;7846;48.830;9.116;2023-02-14T14:29:53;99352.03;;;15.02;48.17
15489;BME280;7846;48.830;9.116;2023-02-14T14:37:35;99352.25;;;15.54;46.79
15489;BME280;7846;48.830;9.116;2023-02-14T14:40:05;99348.03;;;16.49;45.08
15489;BME280;7846;48.830;9.116;2023-02-14T14:42:35;99345.66;;;16.72;44.68
15489;BME280;7846;48.830;9.116;2023-02-14T14:45:07;99343.66;;;15.70;46.81
15489;BME280;7846;48.830;9.116;2023-02-14T14:47:39;99354.81;;;15.64;46.27
15489;BME280;7846;48.830;9.116;2023-02-14T14:50:29;99348.00;;;15.43;47.10
15489;BME280;7846;48.830;9.116;2023-02-14T14:52:59;99340.53;;;15.75;46.26
15489;BME280;7846;48.830;9.116;2023-02-14T14:55:33;99349.28;;;15.39;46.43
15489;BME280;7846;48.830;9.116;2023-02-14T14:58:01;99349.50;;;15.28;46.82
15489;BME280;7846;48.830;9.116;2023-02-14T15:03:12;99347.78;;;15.90;46.86
15489;BME280;7846;48.830;9.116;2023-02-14T15:05:39;99344.63;;;15.06;47.81
15489;BME280;7846;48.830;9.116;2023-02-14T15:10:38;99342.19;;;15.12;47.32
15489;BME280;7846;48.830;9.116;2023-02-14T15:13:03;99339.16;;;15.70;47.23
15489;BME280;7846;48.830;9.116;2023-02-14T15:15:48;99344.31;;;15.72;46.23
15489;BME280;7846;48.830;9.116;2023-02-14T15:18:17;99348.19;;;14.87;48.11